Padul, Spain
Current Conditions -  °F | °C
As of 11:30 AM on Sunday 23 Nov 2014 (Local Time) from LEGR Reporting Station
Scattered Clouds Scattered Clouds  
Wind Chill: 19°   Ceiling: Unl
Heat Index: 19°   Visibility: 6mi
Dew Point: 10°   Wind: 1mph
Humidity: 56%   Direction: NA
Pressure: 29.88"   Gusts: NA
Location:  37.02°N, 3.63°W
Report Text: LEGR 231030Z VRB01KT 9000 FEW090 SCT110 19/10 Q1012
Loading
Personal Weather Stations






























Interactive Weather Map New forecast layout! Learn more

10-Day Weather Forecast

Advertisements
Track Severe Weather on mobile